LDSB/BWK METAR and TAF weather

Enter ICAO airport designator
Station Type Date Time Source
LDSB METAR 2021/02/26 11:00 UTC NOAA

LDSB 261100Z 32005KT 260V020 CAVOK 19/05 Q1027


Station Type Date Time Source
LDSB Decoded METAR 2021/02/26 11:00 UTC NOAA

Brac, Croatia (LDSB) 43-17-09N 016-40-47E
Feb 26, 2021 - 06:00 AM EST / 2021.02.26 1100 UTC
Wind: from the NW (320 degrees) at 6 MPH (5 KT) (direction variable):0
Visibility: greater than 7 mile(s):0
Temperature: 66 F (19 C)
Dew Point: 41 F (5 C)
Relative Humidity: 39%
Pressure (altimeter): 30.33 in. Hg (1027 hPa)
ob: LDSB 261100Z 32005KT 260V020 CAVOK 19/05 Q1027
cycle: 11

Station Type Date Time Source
LDSB TAF 2021/02/26 12:15 UTC NOAA

TAF
AMD LDSB 261211Z 2612/2706 CNL

Example: see airport list